KSUX

Sioux Gateway / Col Bud Day Field Airport

Sioux City, Iowa, USA
METAR KSUX 182221Z 06010KT 10SM VCTS BKN029 BKN034 OVC110 26/23 A2986 RMK AO2 LTG DSNT E AND W AND NW RAE14 P0000 T02560233
Observed Flight Rules
Jun-18 @ 22:21 UTC (16 minutes ago) Marginal Visual Flight Rules
Wind Visibility Clouds Conditions
60° at 10 knots 10 miles
  • Broken at 2,900' AGL
  • Broken at 3,400' AGL
  • Overcast at 11,000' AGL
  • Area Thunderstorm
Temperatures Readings Precipitation
Current 26°C / 79°F
Dewpoint 23°C / 73°F
Humidity 84%
Altimeter 29.86" Hg
Pressure 1011 hPa
Elevation 338
Current Rain 0.005
METAR KSUX 182221Z 06010KT 10SM VCTS BKN029 BKN034 OVC110 26/23 A2986 RMK AO2 LTG DSNT E AND W AND NW RAE14 P0000 T02560233
Observed Flight Rules
Jun-18 @ 22:21 UTC
(16 minutes ago)
MVFR
Wind Visibility
60° at 10 knots 10 miles
Clouds
  • Broken at 2,900' AGL
  • Broken at 3,400' AGL
  • Overcast at 11,000' AGL
Conditions
  • Area Thunderstorm
Temperature Dewpoint
26°C / 79°F 23°C / 73°F
Humidity Altimeter Pressure
84% 29.86" Hg 1011 hPa
Current Rain
0.005